createdAt,value
2018-01-15T00:00:18.581Z,78.25
2018-01-15T00:00:59.145Z,78.16
2018-01-15T00:01:39.698Z,78.72
2018-01-15T00:02:20.250Z,78.44
2018-01-15T00:03:01.005Z,78.34
2018-01-15T00:03:41.575Z,78.44
2018-01-15T00:04:22.143Z,78.44
2018-01-15T00:05:02.717Z,78.53
2018-01-15T00:05:43.280Z,78.44
2018-01-15T00:06:23.840Z,78.44
2018-01-15T00:07:04.397Z,78.72
2018-01-15T00:07:44.959Z,78.34
2018-01-15T00:08:25.512Z,78.63
2018-01-15T00:09:06.064Z,78.72
2018-01-15T00:09:46.611Z,78.53
2018-01-15T00:10:27.162Z,78.53
2018-01-15T00:11:07.726Z,78.72
2018-01-15T00:11:48.318Z,78.63
2018-01-15T00:12:28.878Z,78.44
2018-01-15T00:13:09.429Z,78.53
2018-01-15T00:13:49.981Z,78.63
2018-01-15T00:14:30.564Z,78.25
2018-01-15T00:15:11.121Z,78.72
2018-01-15T00:15:51.700Z,78.53
2018-01-15T00:16:32.264Z,78.16
2018-01-15T00:17:12.820Z,78.16
2018-01-15T00:17:53.372Z,77.87
2018-01-15T00:18:33.938Z,78.16
2018-01-15T00:19:14.487Z,78.06
2018-01-15T00:19:55.039Z,78.25
2018-01-15T00:20:35.603Z,78.16
2018-01-15T00:21:16.161Z,78.16
2018-01-15T00:21:56.739Z,77.59
2018-01-15T00:22:37.287Z,77.59
2018-01-15T00:23:17.835Z,77.59
2018-01-15T00:23:58.394Z,77.59
2018-01-15T00:24:38.965Z,78.16
2018-01-15T00:25:19.565Z,78.25
2018-01-15T00:26:00.142Z,77.78
2018-01-15T00:26:40.710Z,77.59
2018-01-15T00:27:21.314Z,77.78
2018-01-15T00:28:01.886Z,77.59
2018-01-15T00:28:42.432Z,78.16
2018-01-15T00:29:22.990Z,78.25
2018-01-15T00:30:03.576Z,78.16
2018-01-15T00:30:44.143Z,77.97
2018-01-15T00:31:24.709Z,77.97
2018-01-15T00:32:05.280Z,77.97
2018-01-15T00:32:45.835Z,78.25
2018-01-15T00:33:26.386Z,78.16
2018-01-15T00:34:06.984Z,77.87
2018-01-15T00:34:47.531Z,77.87
2018-01-15T00:35:28.094Z,78.16
2018-01-15T00:36:08.654Z,78.06
2018-01-15T00:36:49.217Z,77.87
2018-01-15T00:37:29.771Z,77.87
2018-01-15T00:38:10.345Z,77.87
2018-01-15T00:38:50.967Z,77.97
2018-01-15T00:39:31.518Z,78.25
2018-01-15T00:40:12.072Z,78.06
2018-01-15T00:40:52.669Z,77.97
2018-01-15T00:41:33.206Z,78.25
2018-01-15T00:42:13.767Z,78.25
2018-01-15T00:42:54.317Z,78.16
2018-01-15T00:43:34.910Z,78.53
2018-01-15T00:44:15.493Z,78.53
2018-01-15T00:44:56.084Z,78.81
2018-01-15T00:45:36.650Z,78.63
2018-01-15T00:46:17.225Z,78.63
2018-01-15T00:46:57.787Z,78.72
2018-01-15T00:47:38.349Z,78.81
2018-01-15T00:48:18.905Z,78.44
2018-01-15T00:48:59.456Z,78.44
2018-01-15T00:49:40.024Z,78.63
2018-01-15T00:50:20.657Z,78.63
2018-01-15T00:51:01.210Z,78.63
2018-01-15T00:51:41.767Z,78.81
2018-01-15T00:52:22.329Z,78.34
2018-01-15T00:53:02.878Z,78.72
2018-01-15T00:53:43.444Z,78.63
2018-01-15T00:54:23.998Z,78.63
2018-01-15T00:55:04.553Z,78.53
2018-01-15T00:55:45.103Z,78.63
2018-01-15T00:56:25.666Z,78.34
2018-01-15T00:57:06.218Z,78.44
2018-01-15T00:57:46.774Z,78.25
2018-01-15T00:58:27.335Z,78.63
2018-01-15T00:59:07.892Z,78.25
2018-01-15T00:59:48.453Z,78.44
2018-01-15T01:00:29.014Z,78.25
2018-01-15T01:01:09.569Z,78.44
2018-01-15T01:01:50.132Z,78.44
2018-01-15T01:02:30.670Z,78.53
2018-01-15T01:03:11.229Z,78.34
2018-01-15T01:03:51.793Z,78.63
2018-01-15T01:04:32.348Z,78.63
2018-01-15T01:05:12.913Z,78.44
2018-01-15T01:05:53.457Z,78.53
2018-01-15T01:06:34.018Z,78.53
2018-01-15T01:07:14.564Z,78.44
2018-01-15T01:07:55.121Z,78.44
2018-01-15T01:08:35.691Z,78.53
2018-01-15T01:09:16.245Z,78.25
2018-01-15T01:09:56.810Z,78.63
2018-01-15T01:10:37.371Z,78.34
2018-01-15T01:11:17.935Z,78.53
2018-01-15T01:11:58.491Z,78.34
2018-01-15T01:12:39.040Z,78.44
2018-01-15T01:13:19.594Z,78.63
2018-01-15T01:14:00.162Z,78.34
2018-01-15T01:14:40.720Z,78.44
2018-01-15T01:15:21.288Z,78.53
2018-01-15T01:16:01.857Z,78.53
2018-01-15T01:16:42.435Z,78.34
2018-01-15T01:17:22.997Z,78.25
2018-01-15T01:18:03.561Z,78.34
2018-01-15T01:18:44.134Z,78.53
2018-01-15T01:19:24.693Z,78.81
2018-01-15T01:20:05.249Z,79.1
2018-01-15T01:20:45.819Z,78.81
2018-01-15T01:21:26.445Z,78.72
2018-01-15T01:22:06.967Z,78.53
2018-01-15T01:22:47.523Z,78.81
2018-01-15T01:23:28.070Z,78.53
2018-01-15T01:24:08.652Z,78.63
2018-01-15T01:24:49.223Z,78.63
2018-01-15T01:25:29.795Z,78.44
2018-01-15T01:26:10.387Z,78.72
2018-01-15T01:26:50.946Z,78.63
2018-01-15T01:27:31.500Z,78.44
2018-01-15T01:28:12.056Z,78.81
2018-01-15T01:28:52.606Z,78.63
2018-01-15T01:29:33.165Z,78.53
2018-01-15T01:30:13.721Z,78.81
2018-01-15T01:30:54.274Z,79.1
2018-01-15T01:31:34.832Z,78.81
2018-01-15T01:32:15.396Z,79
2018-01-15T01:32:55.972Z,79
2018-01-15T01:33:36.542Z,78.72
2018-01-15T01:34:17.092Z,78.81
2018-01-15T01:34:57.652Z,78.72
2018-01-15T01:35:38.217Z,78.63
2018-01-15T01:36:18.774Z,78.63
2018-01-15T01:36:59.329Z,78.34
2018-01-15T01:37:39.883Z,78.53
2018-01-15T01:38:20.456Z,78.81
2018-01-15T01:39:01.014Z,78.63
2018-01-15T01:39:41.581Z,78.81
2018-01-15T01:40:22.135Z,78.91
2018-01-15T01:41:02.691Z,78.91
2018-01-15T01:41:43.251Z,78.53
2018-01-15T01:42:23.794Z,79.48
2018-01-15T01:43:04.341Z,79.29
2018-01-15T01:43:44.895Z,78.72
2018-01-15T01:44:25.448Z,78.91
2018-01-15T01:45:05.998Z,78.91
2018-01-15T01:45:48.069Z,78.72
2018-01-15T01:46:28.650Z,78.63
2018-01-15T01:47:09.193Z,78.72
2018-01-15T01:47:49.759Z,78.63
2018-01-15T01:48:30.319Z,78.53
2018-01-15T01:49:10.891Z,79.29
2018-01-15T01:49:51.456Z,79.29
2018-01-15T01:50:32.013Z,79
2018-01-15T01:51:12.565Z,79
2018-01-15T01:51:53.114Z,79.1
2018-01-15T01:52:33.670Z,79
2018-01-15T01:53:14.221Z,79.29
2018-01-15T01:53:54.781Z,79.38
2018-01-15T01:54:35.344Z,79
2018-01-15T01:55:15.893Z,79.19
2018-01-15T01:55:56.442Z,78.91
2018-01-15T01:56:37.002Z,79.29
2018-01-15T01:57:17.562Z,79.38
2018-01-15T01:57:58.138Z,79.29
2018-01-15T01:58:38.698Z,79.1
2018-01-15T01:59:19.258Z,79.29
2018-01-15T01:59:59.811Z,79.29
2018-01-15T02:00:40.369Z,79.29
2018-01-15T02:01:20.937Z,79.29
2018-01-15T02:02:01.491Z,79.29
2018-01-15T02:02:42.048Z,79.1
2018-01-15T02:03:22.600Z,79.95
2018-01-15T02:04:03.158Z,79.86
2018-01-15T02:04:43.729Z,79.48
2018-01-15T02:05:24.288Z,79.95
2018-01-15T02:06:04.848Z,79.86
2018-01-15T02:06:45.411Z,79.48
2018-01-15T02:07:25.968Z,79.76
2018-01-15T02:08:06.517Z,79.95
2018-01-15T02:08:47.069Z,79.67
2018-01-15T02:09:27.642Z,79.86
2018-01-15T02:10:08.203Z,79.67
2018-01-15T02:10:48.771Z,79.67
2018-01-15T02:11:29.323Z,79.76
2018-01-15T02:12:09.882Z,79.95
2018-01-15T02:12:50.485Z,79.86
2018-01-15T02:13:30.994Z,79.57
2018-01-15T02:14:11.559Z,79.76
2018-01-15T02:14:52.116Z,79.57
2018-01-15T02:15:32.674Z,79.57
2018-01-15T02:16:13.236Z,79.57
2018-01-15T02:16:53.796Z,79.1
2018-01-15T02:17:34.357Z,79.86
2018-01-15T02:18:14.905Z,79.1
2018-01-15T02:18:55.459Z,79.38
2018-01-15T02:19:36.023Z,79.38
2018-01-15T02:20:16.568Z,79
2018-01-15T02:20:57.119Z,79
2018-01-15T02:21:37.689Z,79.1
2018-01-15T02:22:18.239Z,79.1
2018-01-15T02:22:58.807Z,79.29
2018-01-15T02:23:39.361Z,79.29
2018-01-15T02:24:19.919Z,79.1
2018-01-15T02:25:00.488Z,79.29
2018-01-15T02:25:41.041Z,78.53
2018-01-15T02:26:21.607Z,79.29
2018-01-15T02:27:02.156Z,78.91
2018-01-15T02:27:42.704Z,79
2018-01-15T02:28:23.259Z,79.19
2018-01-15T02:29:03.804Z,78.91
2018-01-15T02:29:44.353Z,79.29
2018-01-15T02:30:24.938Z,79.19
2018-01-15T02:31:05.486Z,79.19
2018-01-15T02:31:46.064Z,79.86
2018-01-15T02:32:26.612Z,79.57
2018-01-15T02:33:07.168Z,79.29
2018-01-15T02:33:47.722Z,79.29
2018-01-15T02:34:28.275Z,79.29
2018-01-15T02:35:08.823Z,79.1
2018-01-15T02:35:49.386Z,79.29
2018-01-15T02:36:29.931Z,79.1
2018-01-15T02:37:10.495Z,79.29
2018-01-15T02:37:51.053Z,79.19
2018-01-15T02:38:31.635Z,79.48
2018-01-15T02:39:12.184Z,79.38
2018-01-15T02:39:52.746Z,79.29
2018-01-15T02:40:33.315Z,79.29
2018-01-15T02:41:13.886Z,79.67
2018-01-15T02:41:54.448Z,79.57
2018-01-15T02:42:35.004Z,79.86
2018-01-15T02:43:15.558Z,79.76
2018-01-15T02:43:56.116Z,79.86
2018-01-15T02:44:36.669Z,79.57
2018-01-15T02:45:17.214Z,79.67
2018-01-15T02:45:57.776Z,79.86
2018-01-15T02:46:38.339Z,79.76
2018-01-15T02:47:18.911Z,79.86
2018-01-15T02:47:59.469Z,79.57
2018-01-15T02:48:40.047Z,79.95
2018-01-15T02:49:20.598Z,79.48
2018-01-15T02:50:01.153Z,79.48
2018-01-15T02:50:41.704Z,78.91
2018-01-15T02:51:22.281Z,79.76
2018-01-15T02:52:02.845Z,79.67
2018-01-15T02:52:43.418Z,79.57
2018-01-15T02:53:23.976Z,79.76
2018-01-15T02:54:04.537Z,79.1
2018-01-15T02:54:45.097Z,79.48
2018-01-15T02:55:25.662Z,79.1
2018-01-15T02:56:06.252Z,79.1
2018-01-15T02:56:46.808Z,79.86
2018-01-15T02:57:27.372Z,79.1
2018-01-15T02:58:07.938Z,79.38
2018-01-15T02:58:48.486Z,79
2018-01-15T02:59:29.043Z,79
2018-01-15T03:00:09.595Z,79.19
2018-01-15T03:00:50.168Z,78.91
2018-01-15T03:01:30.733Z,79.29
2018-01-15T03:02:11.285Z,79.1
2018-01-15T03:02:51.837Z,79.19
2018-01-15T03:03:32.415Z,79.38
2018-01-15T03:04:12.967Z,79.38
2018-01-15T03:04:53.528Z,79.29
2018-01-15T03:05:34.089Z,79.29
2018-01-15T03:06:14.659Z,79.1
2018-01-15T03:06:55.223Z,79.1
2018-01-15T03:07:35.826Z,79.29
2018-01-15T03:08:16.379Z,79.95
2018-01-15T03:08:56.929Z,78.91
2018-01-15T03:09:37.496Z,79.67
2018-01-15T03:10:18.053Z,79.48
2018-01-15T03:10:58.605Z,79.1
2018-01-15T03:11:39.161Z,79.19
2018-01-15T03:12:19.717Z,79.19
2018-01-15T03:13:00.282Z,79.29
2018-01-15T03:13:40.836Z,79.38
2018-01-15T03:14:21.392Z,79.19
2018-01-15T03:15:01.946Z,79
2018-01-15T03:15:42.504Z,79.29
2018-01-15T03:16:23.079Z,79.29
2018-01-15T03:17:03.650Z,78.91
2018-01-15T03:17:44.223Z,79
2018-01-15T03:18:24.774Z,79.1
2018-01-15T03:19:05.320Z,79.29
2018-01-15T03:19:45.869Z,78.63
2018-01-15T03:20:26.427Z,79
2018-01-15T03:21:06.976Z,78.81
2018-01-15T03:21:47.551Z,78.91
2018-01-15T03:22:28.114Z,78.91
2018-01-15T03:23:08.687Z,78.91
2018-01-15T03:23:49.254Z,78.72
2018-01-15T03:24:29.821Z,79.29
2018-01-15T03:25:10.378Z,79.29
2018-01-15T03:25:50.944Z,79
2018-01-15T03:26:31.504Z,79.1
2018-01-15T03:27:12.067Z,79.48
2018-01-15T03:27:52.637Z,78.63
2018-01-15T03:28:33.205Z,78.91
2018-01-15T03:29:13.762Z,78.91
2018-01-15T03:29:54.322Z,78.53
2018-01-15T03:30:34.874Z,78.44
2018-01-15T03:31:15.436Z,78.72
2018-01-15T03:31:56.005Z,79.48
2018-01-15T03:32:36.569Z,79.1
2018-01-15T03:33:17.158Z,79.24
2018-01-15T03:33:57.710Z,78.72
2018-01-15T03:34:38.261Z,79
2018-01-15T03:35:18.832Z,78.72
2018-01-15T03:35:59.391Z,78.63
2018-01-15T03:36:39.949Z,78.72
2018-01-15T03:37:20.503Z,78.72
2018-01-15T03:38:01.062Z,79
2018-01-15T03:38:41.639Z,78.72
2018-01-15T03:39:22.201Z,79.1
2018-01-15T03:40:02.753Z,79.1
2018-01-15T03:40:43.312Z,79.29
2018-01-15T03:41:23.870Z,79.29
2018-01-15T03:42:04.445Z,79.1
2018-01-15T03:42:44.990Z,79.19
2018-01-15T03:43:25.565Z,79.38
2018-01-15T03:44:06.120Z,79.29
2018-01-15T03:44:46.672Z,79.38
2018-01-15T03:45:27.240Z,79.19
2018-01-15T03:46:07.804Z,78.91
2018-01-15T03:46:48.353Z,79.48
2018-01-15T03:47:28.915Z,79.57
2018-01-15T03:48:09.467Z,79.67
2018-01-15T03:48:50.030Z,79.57
2018-01-15T03:49:30.605Z,79.86
2018-01-15T03:50:11.172Z,79.95
2018-01-15T03:50:51.733Z,80.05
2018-01-15T03:51:32.304Z,80.14
2018-01-15T03:52:12.855Z,79.86
2018-01-15T03:52:53.428Z,79.67
2018-01-15T03:53:33.981Z,79.76
2018-01-15T03:54:14.545Z,79.57
2018-01-15T03:54:55.109Z,79.95
2018-01-15T03:55:35.667Z,79.95
2018-01-15T03:56:16.214Z,79.86
2018-01-15T03:56:56.762Z,79.76
2018-01-15T03:57:37.309Z,79.95
2018-01-15T03:58:17.861Z,79.95
2018-01-15T03:58:58.416Z,79.76
2018-01-15T03:59:38.978Z,80.33
2018-01-15T04:00:19.530Z,80.24
2018-01-15T04:01:00.098Z,80.71
2018-01-15T04:01:40.660Z,80.71
2018-01-15T04:02:21.235Z,80.8
2018-01-15T04:03:01.803Z,80.8
2018-01-15T04:03:42.360Z,80.62
2018-01-15T04:04:22.914Z,80.71
2018-01-15T04:05:03.517Z,80.33
2018-01-15T04:05:44.086Z,79.95
2018-01-15T04:06:24.677Z,80.33
2018-01-15T04:07:05.236Z,80.05
2018-01-15T04:07:45.808Z,80.24
2018-01-15T04:08:26.365Z,80.43
2018-01-15T04:09:06.960Z,80.24
2018-01-15T04:09:47.524Z,80.05
2018-01-15T04:10:28.091Z,79.76
2018-01-15T04:11:08.654Z,80.05
2018-01-15T04:11:49.208Z,80.05
2018-01-15T04:12:29.787Z,80.52
2018-01-15T04:13:10.334Z,80.33
2018-01-15T04:13:50.913Z,79.76
2018-01-15T04:14:31.496Z,79.76
2018-01-15T04:15:12.060Z,80.52
2018-01-15T04:15:52.633Z,80.52
2018-01-15T04:16:33.209Z,79.86
2018-01-15T04:17:13.766Z,79.95
2018-01-15T04:17:54.321Z,79.76
2018-01-15T04:18:34.876Z,80.14
2018-01-15T04:19:15.465Z,80.43
2018-01-15T04:19:56.084Z,80.33
2018-01-15T04:20:36.655Z,80.52
2018-01-15T04:21:17.210Z,80.14
2018-01-15T04:21:57.784Z,80.43
2018-01-15T04:22:38.341Z,80.43
2018-01-15T04:23:18.915Z,80.52
2018-01-15T04:23:59.470Z,80.43
2018-01-15T04:24:40.031Z,79.95
2018-01-15T04:25:20.586Z,79.95
2018-01-15T04:26:01.160Z,79.67
2018-01-15T04:26:41.720Z,79.86
2018-01-15T04:27:22.275Z,79.95
2018-01-15T04:28:02.856Z,79.95
2018-01-15T04:28:43.427Z,79.95
2018-01-15T04:29:24.003Z,80.24
2018-01-15T04:30:04.569Z,80.05
2018-01-15T04:30:45.119Z,79.95
2018-01-15T04:31:25.704Z,79.95
2018-01-15T04:32:06.286Z,79.86
2018-01-15T04:32:46.849Z,79.67
2018-01-15T04:35:04.736Z,79.86
2018-01-15T04:35:45.281Z,79.67
2018-01-15T04:36:25.833Z,79.67
2018-01-15T04:37:06.379Z,79.67
2018-01-15T04:37:46.934Z,79.67
2018-01-15T04:38:27.494Z,79.76
2018-01-15T04:39:08.055Z,79.57
2018-01-15T04:39:48.600Z,79.67
2018-01-15T04:40:29.154Z,79.95
2018-01-15T04:41:09.710Z,79.95
2018-01-15T04:41:50.274Z,79.9
2018-01-15T04:42:30.829Z,79.86
2018-01-15T04:43:11.384Z,79.95
2018-01-15T04:43:51.942Z,80.05
2018-01-15T04:44:32.507Z,80.08
2018-01-15T04:45:13.044Z,80.27
2018-01-15T04:45:53.612Z,80.27
2018-01-15T04:46:34.159Z,80.05
2018-01-15T04:47:14.711Z,79.8
2018-01-15T04:47:55.261Z,79.76
2018-01-15T04:48:35.808Z,79.57
2018-01-15T04:49:16.358Z,79.86
2018-01-15T04:49:56.907Z,79.67
2018-01-15T04:50:37.466Z,79.9
2018-01-15T04:51:18.030Z,79.8
2018-01-15T04:51:58.580Z,79.52
2018-01-15T04:52:39.151Z,79.52
2018-01-15T04:53:19.713Z,79.86
2018-01-15T04:54:00.266Z,79.76
2018-01-15T04:54:40.815Z,80.05
2018-01-15T04:55:21.371Z,80.14
2018-01-15T04:56:01.929Z,79.95
2018-01-15T04:56:42.482Z,80.14
2018-01-15T04:57:23.036Z,80.05
2018-01-15T04:58:03.587Z,79.95
2018-01-15T04:58:44.187Z,80.05
2018-01-15T04:59:24.741Z,80.05
2018-01-15T05:00:05.296Z,80.05
2018-01-15T05:00:45.864Z,79.76
2018-01-15T05:01:26.452Z,80.05
2018-01-15T05:02:07.006Z,80.24
2018-01-15T05:02:47.566Z,80.52
2018-01-15T05:03:28.129Z,80.33
2018-01-15T05:04:08.682Z,80.52
2018-01-15T05:04:49.238Z,80.24
2018-01-15T05:05:29.798Z,80.43
2018-01-15T05:06:10.357Z,80.33
2018-01-15T05:06:50.928Z,79.86
2018-01-15T05:07:31.481Z,80.14
2018-01-15T05:08:12.036Z,80.33
2018-01-15T05:08:52.609Z,80.52
2018-01-15T05:09:33.166Z,80.33
2018-01-15T05:10:13.723Z,80.62
2018-01-15T05:10:54.294Z,80.71
2018-01-15T05:11:34.862Z,80.62
2018-01-15T05:12:15.428Z,80.43
2018-01-15T05:12:55.976Z,80.8
2018-01-15T05:13:36.527Z,80.43
2018-01-15T05:14:17.093Z,80.62
2018-01-15T05:14:57.657Z,80.8
2018-01-15T05:15:38.227Z,80.52
2018-01-15T05:16:18.791Z,80.9
2018-01-15T05:16:59.388Z,80.62
2018-01-15T05:17:39.928Z,80.62
2018-01-15T05:18:20.484Z,80.71
2018-01-15T05:19:01.046Z,80.62
2018-01-15T05:19:41.609Z,80.62
2018-01-15T05:20:22.204Z,80.62
2018-01-15T05:21:02.748Z,80.71
2018-01-15T05:21:43.308Z,80.43
2018-01-15T05:22:23.867Z,80.05
2018-01-15T05:23:04.434Z,79.76
2018-01-15T05:23:44.987Z,80.24
2018-01-15T05:24:25.541Z,80.52
2018-01-15T05:25:06.108Z,80.71
2018-01-15T05:25:46.657Z,80.71
2018-01-15T05:26:27.262Z,80.43
2018-01-15T05:27:07.805Z,80.62
2018-01-15T05:27:48.354Z,80.52
2018-01-15T05:28:28.937Z,80.71
2018-01-15T05:29:09.488Z,80.71
2018-01-15T05:29:50.054Z,80.43
2018-01-15T05:30:30.608Z,80.62
2018-01-15T05:31:11.170Z,80.8
2018-01-15T05:31:51.727Z,80.52
2018-01-15T05:32:32.292Z,80.8
2018-01-15T05:33:12.849Z,80.8
2018-01-15T05:33:53.413Z,80.24
2018-01-15T05:34:33.966Z,80.62
2018-01-15T05:35:14.526Z,80.62
2018-01-15T05:35:55.101Z,80.43
2018-01-15T05:36:35.660Z,80.71
2018-01-15T05:37:16.246Z,80.43
2018-01-15T05:37:56.799Z,80.43
2018-01-15T05:38:37.357Z,80.43
2018-01-15T05:39:17.909Z,80.9
2018-01-15T05:39:58.476Z,80.52
2018-01-15T05:40:39.051Z,80.62
2018-01-15T05:43:02.348Z,80.52
2018-01-15T05:43:42.921Z,80.71
2018-01-15T05:44:23.477Z,80.71
2018-01-15T05:45:05.749Z,80.05
2018-01-15T05:45:46.302Z,79.86
2018-01-15T05:46:26.884Z,80.05
2018-01-15T05:47:07.550Z,80.43
2018-01-15T05:47:48.105Z,80.43
2018-01-15T05:48:28.657Z,80.43
2018-01-15T05:49:09.234Z,80.71
2018-01-15T05:49:49.822Z,80.71
2018-01-15T05:50:30.388Z,80.8
2018-01-15T05:51:10.950Z,80.52
2018-01-15T05:51:51.523Z,80.62
2018-01-15T05:52:32.080Z,80.8
2018-01-15T05:53:12.638Z,80.71
2018-01-15T05:53:53.189Z,80.8
2018-01-15T05:54:33.757Z,80.99
2018-01-15T05:55:14.308Z,80.52
2018-01-15T05:55:54.931Z,80.71
2018-01-15T05:56:35.467Z,80.71
2018-01-15T05:57:16.077Z,81.09
2018-01-15T05:57:56.599Z,80.52
2018-01-15T05:58:37.162Z,80.62
2018-01-15T05:59:17.728Z,80.8
2018-01-15T05:59:58.274Z,80.71
2018-01-15T06:00:38.836Z,80.62
2018-01-15T06:01:19.395Z,80.9
2018-01-15T06:01:59.959Z,80.52
2018-01-15T06:02:40.514Z,80.9
2018-01-15T06:03:21.089Z,80.84
2018-01-15T06:04:01.657Z,80.71
2018-01-15T06:04:42.221Z,81.03
2018-01-15T06:05:22.795Z,80.94
2018-01-15T06:06:03.398Z,80.75
2018-01-15T06:06:43.960Z,80.84
2018-01-15T06:07:24.515Z,80.27
2018-01-15T06:08:05.071Z,80.46
2018-01-15T06:08:45.626Z,80.46
2018-01-15T06:09:26.188Z,80.94
2018-01-15T06:10:06.740Z,80.8
2018-01-15T06:10:47.312Z,80.43
2018-01-15T06:11:27.868Z,80.94
2018-01-15T06:12:08.461Z,80.65
2018-01-15T06:12:49.065Z,80.46
2018-01-15T06:13:29.629Z,80.46
2018-01-15T06:14:10.202Z,80.46
2018-01-15T06:14:50.753Z,80.65
2018-01-15T06:15:31.369Z,80.46
2018-01-15T06:16:11.949Z,80.65
2018-01-15T06:16:52.511Z,80.75
2018-01-15T06:17:33.070Z,79.9
2018-01-15T06:18:13.632Z,80.27
2018-01-15T06:18:54.192Z,80.46
2018-01-15T06:19:34.762Z,80.75
2018-01-15T06:20:15.343Z,80.37
2018-01-15T06:20:55.929Z,80.71
2018-01-15T06:21:36.485Z,80.84
2018-01-15T06:22:17.049Z,80.46
2018-01-15T06:22:57.609Z,80.71
2018-01-15T06:23:38.182Z,80.43
2018-01-15T06:24:18.787Z,80.8
2018-01-15T06:24:59.337Z,80.43
2018-01-15T06:25:39.922Z,80.75
2018-01-15T06:26:20.480Z,80.9
2018-01-15T06:27:01.060Z,80.8
2018-01-15T06:27:41.623Z,80.75
2018-01-15T06:28:22.204Z,80.94
2018-01-15T06:29:02.764Z,80.84
2018-01-15T06:29:43.333Z,80.84
2018-01-15T06:30:23.982Z,80.84
2018-01-15T06:31:04.512Z,80.94
2018-01-15T06:31:45.067Z,80.8
2018-01-15T06:32:25.643Z,80.56
2018-01-15T06:33:06.210Z,80.52
2018-01-15T06:33:46.764Z,80.56
2018-01-15T06:34:27.341Z,81.03
2018-01-15T06:35:07.931Z,81.32
2018-01-15T06:35:48.503Z,81.18
2018-01-15T06:36:29.110Z,81.32
2018-01-15T06:37:09.666Z,80.8
2018-01-15T06:37:50.224Z,80.8
2018-01-15T06:38:30.795Z,80.8
2018-01-15T06:39:11.348Z,80.62
2018-01-15T06:39:51.968Z,80.71
2018-01-15T06:40:32.536Z,81.41
2018-01-15T06:41:13.086Z,81.13
2018-01-15T06:41:53.654Z,81.51
2018-01-15T06:42:34.207Z,81.32
2018-01-15T06:43:14.778Z,85.47
2018-01-15T06:43:55.356Z,88.31
2018-01-15T06:44:35.916Z,90.2
2018-01-15T06:45:16.469Z,90.3
2018-01-15T06:45:57.032Z,89.21
2018-01-15T06:46:37.582Z,88.45
2018-01-15T06:47:18.145Z,88.74
2018-01-15T06:47:58.727Z,86.94
2018-01-15T06:48:39.305Z,84.61
2018-01-15T06:49:19.901Z,82.25
2018-01-15T06:50:00.478Z,82.82
2018-01-15T06:50:41.034Z,83.95
2018-01-15T06:51:21.639Z,82.53
2018-01-15T06:52:02.211Z,83.2
2018-01-15T06:52:42.761Z,79.41
2018-01-15T06:53:23.325Z,79.22
2018-01-15T06:54:04.026Z,77.46
2018-01-15T06:54:44.586Z,79.55
2018-01-15T06:55:25.152Z,81.06
2018-01-15T06:56:05.710Z,81.25
2018-01-15T06:56:46.267Z,80.77
2018-01-15T06:57:26.954Z,77.75
2018-01-15T06:58:07.524Z,75.57
2018-01-15T06:58:48.106Z,75.19
2018-01-15T06:59:28.689Z,75.85
2018-01-15T07:00:09.241Z,75.19
2018-01-15T07:00:51.441Z,73.39
2018-01-15T07:01:31.850Z,74.05
2018-01-15T07:02:12.420Z,75.09
2018-01-15T07:02:52.986Z,75.6
2018-01-15T07:03:33.547Z,74.71
2018-01-15T07:04:14.120Z,73.49
2018-01-15T07:04:54.669Z,72.77
2018-01-15T07:05:35.236Z,73.05
2018-01-15T07:06:15.814Z,72
2018-01-15T07:06:56.378Z,72.1
2018-01-15T07:07:36.947Z,73.52
2018-01-15T07:08:17.524Z,72.86
2018-01-15T07:08:58.074Z,70.87
2018-01-15T07:09:38.636Z,70.39
2018-01-15T07:10:19.192Z,71.4
2018-01-15T07:10:59.769Z,70.64
2018-01-15T07:11:40.349Z,71.5
2018-01-15T07:12:20.907Z,72.77
2018-01-15T07:13:01.455Z,73.05
2018-01-15T07:13:42.012Z,71.53
2018-01-15T07:15:34.587Z,72.67
2018-01-15T07:16:15.141Z,72.29
2018-01-15T07:16:55.733Z,72.1
2018-01-15T07:17:36.323Z,71.81
2018-01-15T07:18:16.885Z,69.35
2018-01-15T07:18:57.446Z,68.4
2018-01-15T07:19:38.014Z,68.98
2018-01-15T07:20:18.585Z,68.02
2018-01-15T07:20:59.160Z,67.46
2018-01-15T07:21:39.717Z,66.99
2018-01-15T07:22:20.281Z,68.4
2018-01-15T07:23:00.838Z,70.78
2018-01-15T07:23:41.395Z,70.78
2018-01-15T07:24:21.955Z,70.49
2018-01-15T07:25:02.600Z,68.31
2018-01-15T07:25:43.127Z,68.21
2018-01-15T07:26:23.705Z,67.08
2018-01-15T07:27:04.282Z,66.03
2018-01-15T07:27:44.857Z,66.19
2018-01-15T07:28:25.427Z,66.09
2018-01-15T07:29:05.993Z,66.67
2018-01-15T07:29:46.556Z,67.33
2018-01-15T07:30:27.111Z,67.77
2018-01-15T07:31:07.693Z,68.52
2018-01-15T07:31:48.258Z,69.19
2018-01-15T07:32:28.826Z,69.85
2018-01-15T07:33:09.392Z,70.51
2018-01-15T07:33:49.956Z,71.04
2018-01-15T07:34:30.520Z,71.61
2018-01-15T07:35:11.102Z,71.71
2018-01-15T07:35:51.669Z,71.9
2018-01-15T07:36:32.229Z,72.37
2018-01-15T07:37:12.799Z,72.94
2018-01-15T07:37:53.359Z,73.41
2018-01-15T07:38:33.930Z,73.69
2018-01-15T07:39:14.500Z,74.07
2018-01-15T07:39:55.059Z,74.17
2018-01-15T07:40:35.647Z,74.64
2018-01-15T07:41:16.205Z,74.83
2018-01-15T07:41:56.798Z,75.26
2018-01-15T07:42:37.368Z,75.36
2018-01-15T07:43:17.927Z,75.83
2018-01-15T07:43:58.492Z,75.64
2018-01-15T07:44:39.046Z,75.64
2018-01-15T07:45:19.598Z,76.21
2018-01-15T07:46:00.158Z,76.31
2018-01-15T07:46:40.710Z,76.31
2018-01-15T07:47:21.267Z,76.78
2018-01-15T07:48:01.820Z,76.78
2018-01-15T07:48:42.384Z,77.44
2018-01-15T07:49:22.957Z,77.44
2018-01-15T07:50:03.508Z,77.72
2018-01-15T07:50:44.076Z,77.63
2018-01-15T07:51:24.671Z,77.91
2018-01-15T07:52:05.225Z,77.91
2018-01-15T07:52:45.777Z,77.44
2018-01-15T07:53:26.409Z,77.82
2018-01-15T07:54:06.976Z,78.39
2018-01-15T07:54:47.544Z,77.72
2018-01-15T07:55:28.135Z,77.53
2018-01-15T07:56:08.677Z,77.63
2018-01-15T07:56:49.283Z,78.29
2018-01-15T07:57:29.886Z,78.01
2018-01-15T07:58:10.477Z,78.2
2018-01-15T07:58:51.028Z,78.48
2018-01-15T07:59:31.603Z,78.67
2018-01-15T08:00:12.176Z,78.48
2018-01-15T08:00:52.743Z,78.67
2018-01-15T08:01:33.294Z,78.39
2018-01-15T08:02:13.853Z,78.67
2018-01-15T08:02:54.418Z,79.05
2018-01-15T08:03:34.994Z,78.95
2018-01-15T08:04:15.556Z,78.76
2018-01-15T08:04:56.110Z,79.14
2018-01-15T08:05:36.675Z,79.05
2018-01-15T08:06:17.235Z,79.52
2018-01-15T08:06:57.790Z,79.33
2018-01-15T08:07:38.353Z,79.71
2018-01-15T08:08:18.909Z,79.99
2018-01-15T08:08:59.486Z,79.8
2018-01-15T08:09:40.045Z,79.52
2018-01-15T08:10:20.606Z,79.8
2018-01-15T08:11:01.166Z,79.8
2018-01-15T08:11:41.758Z,80.18
2018-01-15T08:12:22.331Z,79.71
2018-01-15T08:13:02.889Z,79.71
2018-01-15T08:13:43.447Z,79.71
2018-01-15T08:14:24.001Z,79.8
2018-01-15T08:15:04.556Z,79.8
2018-01-15T08:15:45.113Z,80.08
2018-01-15T08:16:25.671Z,80.08
2018-01-15T08:17:06.246Z,80.18
2018-01-15T08:17:46.816Z,80.05
2018-01-15T08:18:27.384Z,79.8
2018-01-15T08:19:07.958Z,79.99
2018-01-15T08:19:48.516Z,79.8
2018-01-15T08:20:29.091Z,79.8
2018-01-15T08:21:09.652Z,79.99
2018-01-15T08:21:50.226Z,79.99
2018-01-15T08:22:30.772Z,79.99
2018-01-15T08:23:11.326Z,79.71
2018-01-15T08:23:51.880Z,79.8
2018-01-15T08:24:32.465Z,80.46
2018-01-15T08:25:13.025Z,80.46
2018-01-15T08:25:53.625Z,80.18
2018-01-15T08:26:34.198Z,79.8
2018-01-15T08:27:14.785Z,80.56
2018-01-15T08:27:55.384Z,79.86
2018-01-15T08:28:35.936Z,80.75
2018-01-15T08:29:16.507Z,80.84
2018-01-15T08:29:57.088Z,80.43
2018-01-15T08:30:37.678Z,80.94
2018-01-15T08:31:18.239Z,80.46
2018-01-15T08:31:58.802Z,80.84
2018-01-15T08:32:39.376Z,80.56
2018-01-15T08:33:19.975Z,80.46
2018-01-15T08:34:00.542Z,80.75
2018-01-15T08:34:41.238Z,80.71
2018-01-15T08:35:21.781Z,80.65
2018-01-15T08:36:02.328Z,80.75
2018-01-15T08:36:42.882Z,80.75
2018-01-15T08:37:23.450Z,80.75
2018-01-15T08:38:04.022Z,80.56
2018-01-15T08:38:44.582Z,80.75
2018-01-15T08:39:25.135Z,79.8
2018-01-15T08:40:05.695Z,79.8
2018-01-15T08:40:46.257Z,80.75
2018-01-15T08:41:26.805Z,80.65
2018-01-15T08:42:07.361Z,80.46
2018-01-15T08:42:47.948Z,80.94
2018-01-15T08:43:28.505Z,80.46
2018-01-15T08:44:09.067Z,80.62
2018-01-15T08:44:49.622Z,80.43
2018-01-15T08:45:30.191Z,80.65
2018-01-15T08:46:10.743Z,80.8
2018-01-15T08:46:51.315Z,80.56
2018-01-15T08:47:31.862Z,80.65
2018-01-15T08:48:12.420Z,80.84
2018-01-15T08:48:53.003Z,80.94
2018-01-15T08:49:33.554Z,80.84